sensor_id;sensor_type;location;lat;lon;timestamp;temperature;humidity
2106;DHT22;1059;52.548;13.408;2023-03-01T00:00:13;2.50;99.90
2106;DHT22;1059;52.548;13.408;2023-03-01T00:02:40;2.30;99.90
2106;DHT22;1059;52.548;13.408;2023-03-01T00:05:07;2.20;99.90
2106;DHT22;1059;52.548;13.408;2023-03-01T00:07:36;2.10;99.90
2106;DHT22;1059;52.548;13.408;2023-03-01T00:10:03;2.10;99.90
2106;DHT22;1059;52.548;13.408;2023-03-01T00:12:31;2.10;99.90
2106;DHT22;1059;52.548;13.408;2023-03-01T00:14:58;2.20;99.90
2106;DHT22;1059;52.548;13.408;2023-03-01T00:17:25;2.20;99.90
2106;DHT22;1059;52.548;13.408;2023-03-01T00:19:51;2.20;99.90
2106;DHT22;1059;52.548;13.408;2023-03-01T00:22:18;2.30;99.90
2106;DHT22;1059;52.548;13.408;2023-03-01T00:24:47;2.40;99.90
2106;DHT22;1059;52.548;13.408;2023-03-01T00:27:13;2.30;99.90
2106;DHT22;1059;52.548;13.408;2023-03-01T00:29:40;2.20;99.90
2106;DHT22;1059;52.548;13.408;2023-03-01T00:32:07;2.30;99.90
2106;DHT22;1059;52.548;13.408;2023-03-01T00:34:34;2.30;99.90
2106;DHT22;1059;52.548;13.408;2023-03-01T00:37:01;2.20;99.90
2106;DHT22;1059;52.548;13.408;2023-03-01T00:39:31;2.10;99.90
2106;DHT22;1059;52.548;13.408;2023-03-01T00:42:00;2.00;99.90
2106;DHT22;1059;52.548;13.408;2023-03-01T00:44:27;1.80;99.90
2106;DHT22;1059;52.548;13.408;2023-03-01T00:46:53;1.70;99.90
2106;DHT22;1059;52.548;13.408;2023-03-01T00:49:20;1.50;99.90
2106;DHT22;1059;52.548;13.408;2023-03-01T00:51:49;1.40;99.90
2106;DHT22;1059;52.548;13.408;2023-03-01T00:54:16;1.30;99.90
2106;DHT22;1059;52.548;13.408;2023-03-01T00:56:43;1.20;99.90
2106;DHT22;1059;52.548;13.408;2023-03-01T00:59:11;1.10;99.90
2106;DHT22;1059;52.548;13.408;2023-03-01T01:01:38;1.00;99.90
2106;DHT22;1059;52.548;13.408;2023-03-01T01:04:07;0.90;99.90
2106;DHT22;1059;52.548;13.408;2023-03-01T01:06:36;0.80;99.90
2106;DHT22;1059;52.548;13.408;2023-03-01T01:09:05;0.80;99.90
2106;DHT22;1059;52.548;13.408;2023-03-01T01:11:33;0.80;99.90
2106;DHT22;1059;52.548;13.408;2023-03-01T01:14:02;0.70;99.90
2106;DHT22;1059;52.548;13.408;2023-03-01T01:16:31;0.70;99.90
2106;DHT22;1059;52.548;13.408;2023-03-01T01:18:58;0.60;99.90
2106;DHT22;1059;52.548;13.408;2023-03-01T01:21:26;0.50;99.90
2106;DHT22;1059;52.548;13.408;2023-03-01T01:23:53;0.40;99.90
2106;DHT22;1059;52.548;13.408;2023-03-01T01:26:21;0.30;99.90
2106;DHT22;1059;52.548;13.408;2023-03-01T01:28:49;0.30;99.90
2106;DHT22;1059;52.548;13.408;2023-03-01T01:31:17;0.30;99.90
2106;DHT22;1059;52.548;13.408;2023-03-01T01:33:45;0.20;99.90
2106;DHT22;1059;52.548;13.408;2023-03-01T01:36:12;0.20;99.90
2106;DHT22;1059;52.548;13.408;2023-03-01T01:38:39;0.20;99.90
2106;DHT22;1059;52.548;13.408;2023-03-01T01:41:09;0.20;99.90
2106;DHT22;1059;52.548;13.408;2023-03-01T01:43:38;0.10;99.90
2106;DHT22;1059;52.548;13.408;2023-03-01T01:46:10;0.10;99.90
2106;DHT22;1059;52.548;13.408;2023-03-01T01:48:42;0.10;99.90
2106;DHT22;1059;52.548;13.408;2023-03-01T01:51:13;0.00;99.90
2106;DHT22;1059;52.548;13.408;2023-03-01T01:53:46;-0.10;99.90
2106;DHT22;1059;52.548;13.408;2023-03-01T01:56:16;-0.10;99.90
2106;DHT22;1059;52.548;13.408;2023-03-01T01:58:44;-0.10;99.90
2106;DHT22;1059;52.548;13.408;2023-03-01T02:01:13;-0.10;99.90
2106;DHT22;1059;52.548;13.408;2023-03-01T02:03:42;-0.10;99.90
2106;DHT22;1059;52.548;13.408;2023-03-01T02:06:18;-0.10;99.90
2106;DHT22;1059;52.548;13.408;2023-03-01T02:08:47;0.00;99.90
2106;DHT22;1059;52.548;13.408;2023-03-01T02:11:15;0.20;99.90
2106;DHT22;1059;52.548;13.408;2023-03-01T02:13:42;0.40;99.90
2106;DHT22;1059;52.548;13.408;2023-03-01T02:16:10;0.50;99.90
2106;DHT22;1059;52.548;13.408;2023-03-01T02:18:38;0.40;99.90
2106;DHT22;1059;52.548;13.408;2023-03-01T02:21:16;0.30;99.90
2106;DHT22;1059;52.548;13.408;2023-03-01T02:23:44;0.20;99.90
2106;DHT22;1059;52.548;13.408;2023-03-01T02:26:17;0.30;99.90
2106;DHT22;1059;52.548;13.408;2023-03-01T02:28:47;0.20;99.90
2106;DHT22;1059;52.548;13.408;2023-03-01T02:31:16;0.10;99.90
2106;DHT22;1059;52.548;13.408;2023-03-01T02:34:02;0.30;99.90
2106;DHT22;1059;52.548;13.408;2023-03-01T02:36:34;0.30;99.90
2106;DHT22;1059;52.548;13.408;2023-03-01T02:39:03;0.30;99.90
2106;DHT22;1059;52.548;13.408;2023-03-01T02:41:35;0.30;99.90
2106;DHT22;1059;52.548;13.408;2023-03-01T02:44:04;0.40;99.90
2106;DHT22;1059;52.548;13.408;2023-03-01T02:46:31;0.40;99.90
2106;DHT22;1059;52.548;13.408;2023-03-01T02:48:58;0.60;99.90
2106;DHT22;1059;52.548;13.408;2023-03-01T02:51:40;0.70;99.90
2106;DHT22;1059;52.548;13.408;2023-03-01T02:54:15;0.70;99.90
2106;DHT22;1059;52.548;13.408;2023-03-01T02:56:44;0.90;99.90
2106;DHT22;1059;52.548;13.408;2023-03-01T02:59:15;1.00;99.90
2106;DHT22;1059;52.548;13.408;2023-03-01T03:01:43;1.00;99.90
2106;DHT22;1059;52.548;13.408;2023-03-01T03:04:12;1.10;99.90
2106;DHT22;1059;52.548;13.408;2023-03-01T03:06:43;1.10;99.90
2106;DHT22;1059;52.548;13.408;2023-03-01T03:09:11;0.90;99.90
2106;DHT22;1059;52.548;13.408;2023-03-01T03:11:38;0.80;99.90
2106;DHT22;1059;52.548;13.408;2023-03-01T03:14:07;0.90;99.90
2106;DHT22;1059;52.548;13.408;2023-03-01T03:16:40;0.90;99.90
2106;DHT22;1059;52.548;13.408;2023-03-01T03:19:07;0.90;99.90
2106;DHT22;1059;52.548;13.408;2023-03-01T03:21:34;0.90;99.90
2106;DHT22;1059;52.548;13.408;2023-03-01T03:24:00;0.90;99.90
2106;DHT22;1059;52.548;13.408;2023-03-01T03:26:28;0.90;99.90
2106;DHT22;1059;52.548;13.408;2023-03-01T03:28:55;1.00;99.90
2106;DHT22;1059;52.548;13.408;2023-03-01T03:31:22;0.80;99.90
2106;DHT22;1059;52.548;13.408;2023-03-01T03:33:50;0.70;99.90
2106;DHT22;1059;52.548;13.408;2023-03-01T03:36:18;0.70;99.90
2106;DHT22;1059;52.548;13.408;2023-03-01T03:38:46;0.90;99.90
2106;DHT22;1059;52.548;13.408;2023-03-01T03:41:14;0.90;99.90
2106;DHT22;1059;52.548;13.408;2023-03-01T03:43:42;0.80;99.90
2106;DHT22;1059;52.548;13.408;2023-03-01T03:46:10;0.70;99.90
2106;DHT22;1059;52.548;13.408;2023-03-01T03:48:39;0.80;99.90
2106;DHT22;1059;52.548;13.408;2023-03-01T03:51:10;0.80;99.90
2106;DHT22;1059;52.548;13.408;2023-03-01T03:53:37;0.80;99.90
2106;DHT22;1059;52.548;13.408;2023-03-01T03:56:04;0.90;99.90
2106;DHT22;1059;52.548;13.408;2023-03-01T03:58:31;0.90;99.90
2106;DHT22;1059;52.548;13.408;2023-03-01T04:00:59;0.90;99.90
2106;DHT22;1059;52.548;13.408;2023-03-01T04:03:27;1.00;99.90
2106;DHT22;1059;52.548;13.408;2023-03-01T04:05:57;1.00;99.90
2106;DHT22;1059;52.548;13.408;2023-03-01T04:08:25;0.90;99.90
2106;DHT22;1059;52.548;13.408;2023-03-01T04:10:57;0.80;99.90
2106;DHT22;1059;52.548;13.408;2023-03-01T04:13:24;0.90;99.90
2106;DHT22;1059;52.548;13.408;2023-03-01T04:15:52;1.00;99.90
2106;DHT22;1059;52.548;13.408;2023-03-01T04:18:21;1.00;99.90
2106;DHT22;1059;52.548;13.408;2023-03-01T04:20:48;0.90;99.90
2106;DHT22;1059;52.548;13.408;2023-03-01T04:23:18;0.70;99.90
2106;DHT22;1059;52.548;13.408;2023-03-01T04:25:49;0.50;99.90
2106;DHT22;1059;52.548;13.408;2023-03-01T04:28:19;0.60;99.90
2106;DHT22;1059;52.548;13.408;2023-03-01T04:30:46;0.60;99.90
2106;DHT22;1059;52.548;13.408;2023-03-01T04:33:13;0.50;99.90
2106;DHT22;1059;52.548;13.408;2023-03-01T04:35:40;0.70;99.90
2106;DHT22;1059;52.548;13.408;2023-03-01T04:38:07;0.80;99.90
2106;DHT22;1059;52.548;13.408;2023-03-01T04:40:35;0.80;99.90
2106;DHT22;1059;52.548;13.408;2023-03-01T04:43:03;0.90;99.90
2106;DHT22;1059;52.548;13.408;2023-03-01T04:45:32;0.80;99.90
2106;DHT22;1059;52.548;13.408;2023-03-01T04:48:00;0.80;99.90
2106;DHT22;1059;52.548;13.408;2023-03-01T04:50:27;0.80;99.90
2106;DHT22;1059;52.548;13.408;2023-03-01T04:52:54;0.70;99.90
2106;DHT22;1059;52.548;13.408;2023-03-01T04:55:24;0.80;99.90
2106;DHT22;1059;52.548;13.408;2023-03-01T04:57:51;0.80;99.90
2106;DHT22;1059;52.548;13.408;2023-03-01T05:00:22;0.80;99.90
2106;DHT22;1059;52.548;13.408;2023-03-01T05:02:51;0.70;99.90
2106;DHT22;1059;52.548;13.408;2023-03-01T05:05:24;0.70;99.90
2106;DHT22;1059;52.548;13.408;2023-03-01T05:07:53;0.60;99.90
2106;DHT22;1059;52.548;13.408;2023-03-01T05:10:20;0.30;99.90
2106;DHT22;1059;52.548;13.408;2023-03-01T05:12:47;0.10;99.90
2106;DHT22;1059;52.548;13.408;2023-03-01T05:15:14;0.00;99.90
2106;DHT22;1059;52.548;13.408;2023-03-01T05:17:42;-0.10;99.90
2106;DHT22;1059;52.548;13.408;2023-03-01T05:20:10;-0.20;99.90
2106;DHT22;1059;52.548;13.408;2023-03-01T05:22:37;-0.30;99.90
2106;DHT22;1059;52.548;13.408;2023-03-01T05:25:04;-0.30;99.90
2106;DHT22;1059;52.548;13.408;2023-03-01T05:27:32;-0.30;99.90
2106;DHT22;1059;52.548;13.408;2023-03-01T05:29:59;-0.20;99.90
2106;DHT22;1059;52.548;13.408;2023-03-01T05:32:39;-0.20;99.90
2106;DHT22;1059;52.548;13.408;2023-03-01T05:35:08;-0.10;99.90
2106;DHT22;1059;52.548;13.408;2023-03-01T05:37:36;-0.20;99.90
2106;DHT22;1059;52.548;13.408;2023-03-01T05:40:03;-0.20;99.90
2106;DHT22;1059;52.548;13.408;2023-03-01T05:42:30;-0.30;99.90
2106;DHT22;1059;52.548;13.408;2023-03-01T05:44:57;-0.40;99.90
2106;DHT22;1059;52.548;13.408;2023-03-01T05:47:24;-0.50;99.90
2106;DHT22;1059;52.548;13.408;2023-03-01T05:49:51;-0.30;99.90
2106;DHT22;1059;52.548;13.408;2023-03-01T05:52:19;-0.10;99.90
2106;DHT22;1059;52.548;13.408;2023-03-01T05:54:46;-0.10;99.90
2106;DHT22;1059;52.548;13.408;2023-03-01T05:57:13;0.00;99.90
2106;DHT22;1059;52.548;13.408;2023-03-01T05:59:40;0.20;99.90
2106;DHT22;1059;52.548;13.408;2023-03-01T06:02:07;0.30;99.90
2106;DHT22;1059;52.548;13.408;2023-03-01T06:04:33;0.40;99.90
2106;DHT22;1059;52.548;13.408;2023-03-01T06:07:00;0.40;99.90
2106;DHT22;1059;52.548;13.408;2023-03-01T06:09:29;0.30;99.90
2106;DHT22;1059;52.548;13.408;2023-03-01T06:11:56;0.30;99.90
2106;DHT22;1059;52.548;13.408;2023-03-01T06:14:23;0.30;99.90
2106;DHT22;1059;52.548;13.408;2023-03-01T06:16:49;0.10;99.90
2106;DHT22;1059;52.548;13.408;2023-03-01T06:19:16;0.20;99.90
2106;DHT22;1059;52.548;13.408;2023-03-01T06:21:43;0.20;99.90
2106;DHT22;1059;52.548;13.408;2023-03-01T06:24:10;0.30;99.90
2106;DHT22;1059;52.548;13.408;2023-03-01T06:26:38;0.40;99.90
2106;DHT22;1059;52.548;13.408;2023-03-01T06:29:05;0.50;99.90
2106;DHT22;1059;52.548;13.408;2023-03-01T06:31:32;0.50;99.90
2106;DHT22;1059;52.548;13.408;2023-03-01T06:33:59;0.60;99.90
2106;DHT22;1059;52.548;13.408;2023-03-01T06:36:26;0.60;99.90
2106;DHT22;1059;52.548;13.408;2023-03-01T06:38:53;0.60;99.90
2106;DHT22;1059;52.548;13.408;2023-03-01T06:41:20;0.70;99.90
2106;DHT22;1059;52.548;13.408;2023-03-01T06:43:48;0.80;99.90
2106;DHT22;1059;52.548;13.408;2023-03-01T06:46:15;0.70;99.90
2106;DHT22;1059;52.548;13.408;2023-03-01T06:48:42;0.60;99.90
2106;DHT22;1059;52.548;13.408;2023-03-01T06:51:09;0.40;99.90
2106;DHT22;1059;52.548;13.408;2023-03-01T06:53:35;0.40;99.90
2106;DHT22;1059;52.548;13.408;2023-03-01T06:56:03;0.40;99.90
2106;DHT22;1059;52.548;13.408;2023-03-01T06:58:30;0.40;99.90
2106;DHT22;1059;52.548;13.408;2023-03-01T07:00:58;0.40;99.90
2106;DHT22;1059;52.548;13.408;2023-03-01T07:03:25;0.40;99.90
2106;DHT22;1059;52.548;13.408;2023-03-01T07:05:52;0.50;99.90
2106;DHT22;1059;52.548;13.408;2023-03-01T07:08:19;0.40;99.90
2106;DHT22;1059;52.548;13.408;2023-03-01T07:10:45;0.40;99.90
2106;DHT22;1059;52.548;13.408;2023-03-01T07:13:12;0.40;99.90
2106;DHT22;1059;52.548;13.408;2023-03-01T07:15:40;0.40;99.90
2106;DHT22;1059;52.548;13.408;2023-03-01T07:18:08;0.40;99.90
2106;DHT22;1059;52.548;13.408;2023-03-01T07:20:35;0.40;99.90
2106;DHT22;1059;52.548;13.408;2023-03-01T07:23:02;0.50;99.90
2106;DHT22;1059;52.548;13.408;2023-03-01T07:25:29;0.60;99.90
2106;DHT22;1059;52.548;13.408;2023-03-01T07:27:56;0.70;99.90
2106;DHT22;1059;52.548;13.408;2023-03-01T07:30:23;0.90;99.90
2106;DHT22;1059;52.548;13.408;2023-03-01T07:32:51;0.90;99.90
2106;DHT22;1059;52.548;13.408;2023-03-01T07:35:19;1.10;99.90
2106;DHT22;1059;52.548;13.408;2023-03-01T07:37:46;1.30;99.90
2106;DHT22;1059;52.548;13.408;2023-03-01T07:40:13;1.40;99.90
2106;DHT22;1059;52.548;13.408;2023-03-01T07:42:40;1.40;99.90
2106;DHT22;1059;52.548;13.408;2023-03-01T07:45:07;1.30;99.90
2106;DHT22;1059;52.548;13.408;2023-03-01T07:47:34;1.50;99.90
2106;DHT22;1059;52.548;13.408;2023-03-01T07:50:01;1.30;99.90
2106;DHT22;1059;52.548;13.408;2023-03-01T07:52:30;1.30;99.90
2106;DHT22;1059;52.548;13.408;2023-03-01T07:54:58;1.30;99.90
2106;DHT22;1059;52.548;13.408;2023-03-01T07:57:25;1.40;99.90
2106;DHT22;1059;52.548;13.408;2023-03-01T07:59:52;1.50;99.90
2106;DHT22;1059;52.548;13.408;2023-03-01T08:02:18;1.60;99.90
2106;DHT22;1059;52.548;13.408;2023-03-01T08:04:45;1.70;99.90
2106;DHT22;1059;52.548;13.408;2023-03-01T08:07:12;1.70;99.90
2106;DHT22;1059;52.548;13.408;2023-03-01T08:09:40;1.70;99.90
2106;DHT22;1059;52.548;13.408;2023-03-01T08:12:07;1.80;99.90
2106;DHT22;1059;52.548;13.408;2023-03-01T08:14:34;2.00;99.90
2106;DHT22;1059;52.548;13.408;2023-03-01T08:17:01;2.00;99.90
2106;DHT22;1059;52.548;13.408;2023-03-01T08:19:29;2.10;99.90
2106;DHT22;1059;52.548;13.408;2023-03-01T08:21:56;2.10;99.90
2106;DHT22;1059;52.548;13.408;2023-03-01T08:24:25;2.20;99.90
2106;DHT22;1059;52.548;13.408;2023-03-01T08:26:54;2.30;99.90
2106;DHT22;1059;52.548;13.408;2023-03-01T08:29:21;2.40;99.90
2106;DHT22;1059;52.548;13.408;2023-03-01T08:31:50;2.50;99.90
2106;DHT22;1059;52.548;13.408;2023-03-01T08:34:18;2.50;99.90
2106;DHT22;1059;52.548;13.408;2023-03-01T08:36:46;2.50;99.90
2106;DHT22;1059;52.548;13.408;2023-03-01T08:39:14;2.60;99.90
2106;DHT22;1059;52.548;13.408;2023-03-01T08:41:41;2.60;99.90
2106;DHT22;1059;52.548;13.408;2023-03-01T08:44:11;2.60;99.90
2106;DHT22;1059;52.548;13.408;2023-03-01T08:46:40;2.60;99.90
2106;DHT22;1059;52.548;13.408;2023-03-01T08:49:10;2.80;99.90
2106;DHT22;1059;52.548;13.408;2023-03-01T08:51:37;2.80;99.90
2106;DHT22;1059;52.548;13.408;2023-03-01T08:54:05;2.70;99.90
2106;DHT22;1059;52.548;13.408;2023-03-01T08:56:32;2.70;99.90
2106;DHT22;1059;52.548;13.408;2023-03-01T08:58:59;2.80;99.90
2106;DHT22;1059;52.548;13.408;2023-03-01T09:01:28;2.80;99.90
2106;DHT22;1059;52.548;13.408;2023-03-01T09:03:55;2.80;99.90
2106;DHT22;1059;52.548;13.408;2023-03-01T09:06:22;2.90;99.90
2106;DHT22;1059;52.548;13.408;2023-03-01T09:08:49;3.10;99.90
2106;DHT22;1059;52.548;13.408;2023-03-01T09:11:17;3.30;99.90
2106;DHT22;1059;52.548;13.408;2023-03-01T09:13:45;3.30;99.90
2106;DHT22;1059;52.548;13.408;2023-03-01T09:16:13;3.30;99.90
2106;DHT22;1059;52.548;13.408;2023-03-01T09:18:42;3.40;99.90
2106;DHT22;1059;52.548;13.408;2023-03-01T09:21:10;3.50;99.90
2106;DHT22;1059;52.548;13.408;2023-03-01T09:23:40;3.50;99.90
2106;DHT22;1059;52.548;13.408;2023-03-01T09:26:08;3.60;99.90
2106;DHT22;1059;52.548;13.408;2023-03-01T09:28:35;3.50;99.90
2106;DHT22;1059;52.548;13.408;2023-03-01T09:31:03;3.50;99.90
2106;DHT22;1059;52.548;13.408;2023-03-01T09:33:32;3.60;99.90
2106;DHT22;1059;52.548;13.408;2023-03-01T09:36:02;3.60;99.90
2106;DHT22;1059;52.548;13.408;2023-03-01T09:38:30;3.70;99.90
2106;DHT22;1059;52.548;13.408;2023-03-01T09:40:57;3.80;99.90
2106;DHT22;1059;52.548;13.408;2023-03-01T09:43:29;3.90;99.90
2106;DHT22;1059;52.548;13.408;2023-03-01T09:46:00;3.90;99.90
2106;DHT22;1059;52.548;13.408;2023-03-01T09:48:36;3.90;99.90
2106;DHT22;1059;52.548;13.408;2023-03-01T09:51:08;3.90;99.90
2106;DHT22;1059;52.548;13.408;2023-03-01T09:53:35;4.00;99.90
2106;DHT22;1059;52.548;13.408;2023-03-01T09:56:05;4.10;99.90
2106;DHT22;1059;52.548;13.408;2023-03-01T09:58:39;4.10;99.90
2106;DHT22;1059;52.548;13.408;2023-03-01T10:01:22;4.10;99.90
2106;DHT22;1059;52.548;13.408;2023-03-01T10:04:02;4.10;99.90
2106;DHT22;1059;52.548;13.408;2023-03-01T10:06:33;4.30;99.90
2106;DHT22;1059;52.548;13.408;2023-03-01T10:09:03;4.30;99.90
2106;DHT22;1059;52.548;13.408;2023-03-01T10:11:35;4.40;99.90
2106;DHT22;1059;52.548;13.408;2023-03-01T10:14:05;4.60;99.90
2106;DHT22;1059;52.548;13.408;2023-03-01T10:16:38;4.60;99.90
2106;DHT22;1059;52.548;13.408;2023-03-01T10:19:12;4.70;99.90
2106;DHT22;1059;52.548;13.408;2023-03-01T10:21:45;4.80;99.90
2106;DHT22;1059;52.548;13.408;2023-03-01T10:24:14;4.90;99.90
2106;DHT22;1059;52.548;13.408;2023-03-01T10:26:48;4.90;99.90
2106;DHT22;1059;52.548;13.408;2023-03-01T10:29:21;5.00;99.90
2106;DHT22;1059;52.548;13.408;2023-03-01T10:31:52;5.10;99.90
2106;DHT22;1059;52.548;13.408;2023-03-01T10:34:21;5.10;99.90
2106;DHT22;1059;52.548;13.408;2023-03-01T10:36:51;5.00;99.90
2106;DHT22;1059;52.548;13.408;2023-03-01T10:39:21;5.10;99.90
2106;DHT22;1059;52.548;13.408;2023-03-01T10:41:57;5.00;99.90
2106;DHT22;1059;52.548;13.408;2023-03-01T10:44:42;5.00;99.90
2106;DHT22;1059;52.548;13.408;2023-03-01T10:47:15;5.10;99.90
2106;DHT22;1059;52.548;13.408;2023-03-01T10:50:01;5.20;99.90
2106;DHT22;1059;52.548;13.408;2023-03-01T10:52:35;5.20;99.90
2106;DHT22;1059;52.548;13.408;2023-03-01T10:55:04;5.20;99.90
2106;DHT22;1059;52.548;13.408;2023-03-01T10:57:44;5.20;97.80
2106;DHT22;1059;52.548;13.408;2023-03-01T11:00:21;5.20;95.80
2106;DHT22;1059;52.548;13.408;2023-03-01T11:02:51;5.20;95.40
2106;DHT22;1059;52.548;13.408;2023-03-01T11:05:23;5.30;97.50
2106;DHT22;1059;52.548;13.408;2023-03-01T11:07:53;5.40;96.90
2106;DHT22;1059;52.548;13.408;2023-03-01T11:10:23;5.40;96.20
2106;DHT22;1059;52.548;13.408;2023-03-01T11:12:51;5.50;94.50
2106;DHT22;1059;52.548;13.408;2023-03-01T11:15:25;5.50;94.00
2106;DHT22;1059;52.548;13.408;2023-03-01T11:17:53;5.60;94.00
2106;DHT22;1059;52.548;13.408;2023-03-01T11:20:25;5.70;89.70
2106;DHT22;1059;52.548;13.408;2023-03-01T11:22:57;5.60;87.70
2106;DHT22;1059;52.548;13.408;2023-03-01T11:25:26;5.60;89.70
2106;DHT22;1059;52.548;13.408;2023-03-01T11:27:54;5.70;90.90
2106;DHT22;1059;52.548;13.408;2023-03-01T11:30:25;5.70;90.50
2106;DHT22;1059;52.548;13.408;2023-03-01T11:33:03;5.80;83.70
2106;DHT22;1059;52.548;13.408;2023-03-01T11:35:32;5.90;74.20
2106;DHT22;1059;52.548;13.408;2023-03-01T11:38:15;6.10;74.60
2106;DHT22;1059;52.548;13.408;2023-03-01T11:40:46;6.10;75.10
2106;DHT22;1059;52.548;13.408;2023-03-01T11:43:21;6.20;77.50
2106;DHT22;1059;52.548;13.408;2023-03-01T11:46:23;6.30;76.80
2106;DHT22;1059;52.548;13.408;2023-03-01T11:48:57;6.30;74.80
2106;DHT22;1059;52.548;13.408;2023-03-01T11:51:41;6.40;72.20
2106;DHT22;1059;52.548;13.408;2023-03-01T11:54:25;6.50;71.80
2106;DHT22;1059;52.548;13.408;2023-03-01T11:56:59;6.70;72.70
2106;DHT22;1059;52.548;13.408;2023-03-01T11:59:49;6.90;67.00
2106;DHT22;1059;52.548;13.408;2023-03-01T12:05:42;7.20;58.10
2106;DHT22;1059;52.548;13.408;2023-03-01T12:08:17;7.80;57.60
2106;DHT22;1059;52.548;13.408;2023-03-01T12:10:56;9.40;52.80
2106;DHT22;1059;52.548;13.408;2023-03-01T12:13:44;11.10;46.50
2106;DHT22;1059;52.548;13.408;2023-03-01T12:16:27;12.60;41.40
2106;DHT22;1059;52.548;13.408;2023-03-01T12:19:19;14.00;31.80
2106;DHT22;1059;52.548;13.408;2023-03-01T12:22:08;15.10;30.50
2106;DHT22;1059;52.548;13.408;2023-03-01T12:27:56;17.30;20.50
2106;DHT22;1059;52.548;13.408;2023-03-01T12:30:33;18.00;18.20
2106;DHT22;1059;52.548;13.408;2023-03-01T12:33:12;18.70;17.10
2106;DHT22;1059;52.548;13.408;2023-03-01T12:35:52;19.50;16.60
2106;DHT22;1059;52.548;13.408;2023-03-01T12:38:31;19.90;14.40
2106;DHT22;1059;52.548;13.408;2023-03-01T12:44:33;19.30;11.40
2106;DHT22;1059;52.548;13.408;2023-03-01T12:47:26;19.70;11.50
2106;DHT22;1059;52.548;13.408;2023-03-01T12:49:59;20.20;10.90
2106;DHT22;1059;52.548;13.408;2023-03-01T12:52:35;20.30;11.00
2106;DHT22;1059;52.548;13.408;2023-03-01T12:55:16;20.20;10.30
2106;DHT22;1059;52.548;13.408;2023-03-01T12:57:49;20.40;11.60
2106;DHT22;1059;52.548;13.408;2023-03-01T13:00:28;20.60;11.00
2106;DHT22;1059;52.548;13.408;2023-03-01T13:03:02;21.30;12.20
2106;DHT22;1059;52.548;13.408;2023-03-01T13:05:40;20.80;10.00
2106;DHT22;1059;52.548;13.408;2023-03-01T13:08:13;20.90;11.20
2106;DHT22;1059;52.548;13.408;2023-03-01T13:10:46;21.40;11.20
2106;DHT22;1059;52.548;13.408;2023-03-01T13:13:20;21.50;10.10
2106;DHT22;1059;52.548;13.408;2023-03-01T13:15:49;22.30;11.70
2106;DHT22;1059;52.548;13.408;2023-03-01T13:18:31;23.10;9.80
2106;DHT22;1059;52.548;13.408;2023-03-01T13:21:00;23.30;8.20
2106;DHT22;1059;52.548;13.408;2023-03-01T13:23:30;23.20;7.10
2106;DHT22;1059;52.548;13.408;2023-03-01T13:26:03;22.90;6.70
2106;DHT22;1059;52.548;13.408;2023-03-01T13:28:40;22.00;5.90
2106;DHT22;1059;52.548;13.408;2023-03-01T13:33:55;21.90;6.40
2106;DHT22;1059;52.548;13.408;2023-03-01T13:36:53;21.30;6.00
2106;DHT22;1059;52.548;13.408;2023-03-01T13:39:39;20.40;6.60
2106;DHT22;1059;52.548;13.408;2023-03-01T13:42:41;20.40;8.00
2106;DHT22;1059;52.548;13.408;2023-03-01T13:45:19;20.70;10.30
2106;DHT22;1059;52.548;13.408;2023-03-01T13:47:51;21.40;9.40
2106;DHT22;1059;52.548;13.408;2023-03-01T13:50:21;22.00;9.00
2106;DHT22;1059;52.548;13.408;2023-03-01T13:52:53;22.20;9.10
2106;DHT22;1059;52.548;13.408;2023-03-01T13:55:26;22.60;10.00
2106;DHT22;1059;52.548;13.408;2023-03-01T13:57:56;22.60;8.30
2106;DHT22;1059;52.548;13.408;2023-03-01T14:00:33;22.20;7.40
2106;DHT22;1059;52.548;13.408;2023-03-01T14:03:10;21.40;7.50
2106;DHT22;1059;52.548;13.408;2023-03-01T14:05:38;21.40;7.90
2106;DHT22;1059;52.548;13.408;2023-03-01T14:08:19;21.40;8.80
2106;DHT22;1059;52.548;13.408;2023-03-01T14:10:57;21.70;9.40
2106;DHT22;1059;52.548;13.408;2023-03-01T14:13:37;21.90;8.20
2106;DHT22;1059;52.548;13.408;2023-03-01T14:16:17;21.90;8.40
2106;DHT22;1059;52.548;13.408;2023-03-01T14:18:55;22.30;9.80
2106;DHT22;1059;52.548;13.408;2023-03-01T14:21:26;22.60;9.40
2106;DHT22;1059;52.548;13.408;2023-03-01T14:23:52;22.80;8.80
2106;DHT22;1059;52.548;13.408;2023-03-01T14:26:21;22.80;8.90
2106;DHT22;1059;52.548;13.408;2023-03-01T14:28:48;22.90;9.80
2106;DHT22;1059;52.548;13.408;2023-03-01T14:31:32;22.30;8.50
2106;DHT22;1059;52.548;13.408;2023-03-01T14:34:02;21.10;8.30
2106;DHT22;1059;52.548;13.408;2023-03-01T14:36:31;20.90;9.40
2106;DHT22;1059;52.548;13.408;2023-03-01T14:38:58;21.30;11.70
2106;DHT22;1059;52.548;13.408;2023-03-01T14:41:32;21.70;10.80
2106;DHT22;1059;52.548;13.408;2023-03-01T14:44:01;21.80;9.80
2106;DHT22;1059;52.548;13.408;2023-03-01T14:46:30;21.70;10.40
2106;DHT22;1059;52.548;13.408;2023-03-01T14:49:03;21.80;10.30
2106;DHT22;1059;52.548;13.408;2023-03-01T14:51:35;21.90;11.60
2106;DHT22;1059;52.548;13.408;2023-03-01T14:54:10;21.90;9.80
2106;DHT22;1059;52.548;13.408;2023-03-01T14:56:46;21.80;10.40
2106;DHT22;1059;52.548;13.408;2023-03-01T14:59:13;21.50;9.80
2106;DHT22;1059;52.548;13.408;2023-03-01T15:01:41;21.20;11.60
2106;DHT22;1059;52.548;13.408;2023-03-01T15:04:12;21.10;9.90
2106;DHT22;1059;52.548;13.408;2023-03-01T15:06:40;20.80;10.20
2106;DHT22;1059;52.548;13.408;2023-03-01T15:09:14;20.80;10.50
2106;DHT22;1059;52.548;13.408;2023-03-01T15:11:42;20.80;10.70
2106;DHT22;1059;52.548;13.408;2023-03-01T15:14:26;21.00;10.80
2106;DHT22;1059;52.548;13.408;2023-03-01T15:16:54;20.50;9.80
2106;DHT22;1059;52.548;13.408;2023-03-01T15:19:24;20.30;10.60
2106;DHT22;1059;52.548;13.408;2023-03-01T15:21:54;20.10;11.30
2106;DHT22;1059;52.548;13.408;2023-03-01T15:24:24;20.10;11.90
2106;DHT22;1059;52.548;13.408;2023-03-01T15:26:55;20.00;10.70
2106;DHT22;1059;52.548;13.408;2023-03-01T15:29:24;20.10;11.40
2106;DHT22;1059;52.548;13.408;2023-03-01T15:31:57;20.10;12.00
2106;DHT22;1059;52.548;13.408;2023-03-01T15:34:28;19.80;12.30
2106;DHT22;1059;52.548;13.408;2023-03-01T15:36:57;19.90;11.80
2106;DHT22;1059;52.548;13.408;2023-03-01T15:39:31;19.80;11.20
2106;DHT22;1059;52.548;13.408;2023-03-01T15:42:03;19.60;11.00
2106;DHT22;1059;52.548;13.408;2023-03-01T15:44:32;19.10;11.10
2106;DHT22;1059;52.548;13.408;2023-03-01T15:47:00;19.00;12.70
2106;DHT22;1059;52.548;13.408;2023-03-01T15:49:35;18.80;12.70
2106;DHT22;1059;52.548;13.408;2023-03-01T15:52:03;18.50;12.60
2106;DHT22;1059;52.548;13.408;2023-03-01T15:54:30;18.60;13.10
2106;DHT22;1059;52.548;13.408;2023-03-01T15:56:57;18.60;13.50
2106;DHT22;1059;52.548;13.408;2023-03-01T15:59:24;18.70;13.60
2106;DHT22;1059;52.548;13.408;2023-03-01T16:01:51;18.60;12.80
2106;DHT22;1059;52.548;13.408;2023-03-01T16:04:19;18.50;14.70
2106;DHT22;1059;52.548;13.408;2023-03-01T16:06:51;18.40;13.00
2106;DHT22;1059;52.548;13.408;2023-03-01T16:09:22;18.10;12.40
2106;DHT22;1059;52.548;13.408;2023-03-01T16:11:50;17.10;12.50
2106;DHT22;1059;52.548;13.408;2023-03-01T16:14:17;16.20;13.00
2106;DHT22;1059;52.548;13.408;2023-03-01T16:16:44;16.00;14.20
2106;DHT22;1059;52.548;13.408;2023-03-01T16:19:11;15.20;14.10
2106;DHT22;1059;52.548;13.408;2023-03-01T16:21:39;14.60;15.00
2106;DHT22;1059;52.548;13.408;2023-03-01T16:24:08;13.90;15.70
2106;DHT22;1059;52.548;13.408;2023-03-01T16:26:36;13.50;16.40
2106;DHT22;1059;52.548;13.408;2023-03-01T16:29:04;13.20;17.20